^^
Paulen-Weather Station Historical Data
Daily Summary for May 02, 2022 Units:  Both    English   Metric
Daily Weekly Monthly Yearly Custom
  High: Low: Average:
Temperature: 55.4 °F /  13 °C 41 °F /  5 °C 48.6 °F /  9.2 °C
Dew Point: 50 °F /  10 °C 33.8 °F /  1 °C 41.2 °F /  5.1 °C
Humidity: 90% 54% 75%
Wind Speed: 16.2mph /  26km/h - 6.8mph /  11km/h
Wind Gust: 12.4mph /  20km/h - -
Wind- - SE
Pressure: 30.1 in /  1020.42 hPa 29.9 in /  1012.6 hPa -
Precipitation: 0 in /  0 mm    
Historical Graphs
 
 
Tabular Data for May 02, 2022
Time Temperature Dew Point Pressure Wind Wind Speed Wind Gust Humidity Rainfall Rate (Hourly) solar
00:04 48.2 °F /  9 °C 39.2 °F /  4 °C 30.1in /  1020.42hPa NNW 2.5mph /  4km/h 1.2mph /  2km/h 73% 0in /  0mm 0 W/m2
00:09 48.2 °F /  9 °C 39.2 °F /  4 °C 30.1in /  1020.39hPa N 2.5mph /  4km/h 1.9mph /  3km/h 73% 0in /  0mm 0 W/m2
00:14 48.2 °F /  9 °C 39.2 °F /  4 °C 30.1in /  1020.32hPa NW 3.1mph /  5km/h 1.2mph /  2km/h 73% 0in /  0mm 0 W/m2
00:19 48.2 °F /  9 °C 39.2 °F /  4 °C 30.1in /  1020.29hPa NW 1.2mph /  2km/h 0.6mph /  1km/h 73% 0in /  0mm 0 W/m2
00:24 46.4 °F /  8 °C 39.2 °F /  4 °C 30.1in /  1020.22hPa NW 1.2mph /  2km/h   73% 0in /  0mm 0 W/m2
00:29 46.4 °F /  8 °C 39.2 °F /  4 °C 30.1in /  1020.18hPa N 1.2mph /  2km/h 1.2mph /  2km/h 73% 0in /  0mm 0 W/m2
00:34 46.4 °F /  8 °C 39.2 °F /  4 °C 30.1in /  1020.22hPa NNE 2.5mph /  4km/h 0.6mph /  1km/h 73% 0in /  0mm 0 W/m2
00:39 46.4 °F /  8 °C 39.2 °F /  4 °C 30.1in /  1020.15hPa NNW 1.9mph /  3km/h 1.2mph /  2km/h 74% 0in /  0mm 0 W/m2
00:44 46.4 °F /  8 °C 39.2 °F /  4 °C 30.1in /  1020.15hPa NNE 3.1mph /  5km/h 1.2mph /  2km/h 74% 0in /  0mm 0 W/m2
00:49 46.4 °F /  8 °C 39.2 °F /  4 °C 30.1in /  1020.08hPa NNE 2.5mph /  4km/h 1.2mph /  2km/h 75% 0in /  0mm 0 W/m2
00:54 46.4 °F /  8 °C 39.2 °F /  4 °C 30.1in /  1020.05hPa NE 3.7mph /  6km/h 3.1mph /  5km/h 75% 0in /  0mm 0 W/m2
00:59 46.4 °F /  8 °C 39.2 °F /  4 °C 30.1in /  1020.08hPa NE 3.7mph /  6km/h 3.1mph /  5km/h 75% 0in /  0mm 0 W/m2
01:04 46.4 °F /  8 °C 39.2 °F /  4 °C 30.1in /  1020.05hPa NE 3.7mph /  6km/h 2.5mph /  4km/h 75% 0in /  0mm 0 W/m2
01:09 46.4 °F /  8 °C 39.2 °F /  4 °C 30.1in /  1020.01hPa NNE 3.1mph /  5km/h 2.5mph /  4km/h 75% 0in /  0mm 0 W/m2
01:14 46.4 °F /  8 °C 39.2 °F /  4 °C 30.1in /  1019.98hPa N 3.7mph /  6km/h 1.9mph /  3km/h 75% 0in /  0mm 0 W/m2
01:19 46.4 °F /  8 °C 39.2 °F /  4 °C 30.1in /  1019.95hPa NNE 3.1mph /  5km/h 1.9mph /  3km/h 75% 0in /  0mm 0 W/m2
01:24 46.4 °F /  8 °C 39.2 °F /  4 °C 30.1in /  1019.91hPa NE 3.1mph /  5km/h 1.9mph /  3km/h 75% 0in /  0mm 0 W/m2
01:29 46.4 °F /  8 °C 39.2 °F /  4 °C 30.1in /  1019.88hPa ENE 1.9mph /  3km/h 0.6mph /  1km/h 75% 0in /  0mm 0 W/m2
01:34 46.4 °F /  8 °C 39.2 °F /  4 °C 30.1in /  1019.78hPa NE 3.1mph /  5km/h 1.9mph /  3km/h 75% 0in /  0mm 0 W/m2
01:39 46.4 °F /  8 °C 37.4 °F /  3 °C 30.1in /  1019.71hPa NNE 3.1mph /  5km/h 1.2mph /  2km/h 75% 0in /  0mm 0 W/m2
01:44 46.4 °F /  8 °C 37.4 °F /  3 °C 30.1in /  1019.68hPa NE 4.3mph /  7km/h 3.1mph /  5km/h 75% 0in /  0mm 0 W/m2
01:49 44.6 °F /  7 °C 37.4 °F /  3 °C 30.1in /  1019.57hPa NNE 2.5mph /  4km/h 1.2mph /  2km/h 75% 0in /  0mm 0 W/m2
01:54 44.6 °F /  7 °C 37.4 °F /  3 °C 30.1in /  1019.57hPa NE 3.1mph /  5km/h 1.2mph /  2km/h 75% 0in /  0mm 0 W/m2
01:59 44.6 °F /  7 °C 37.4 °F /  3 °C 30.1in /  1019.51hPa NE 3.1mph /  5km/h 1.2mph /  2km/h 75% 0in /  0mm 0 W/m2
02:04 44.6 °F /  7 °C 37.4 °F /  3 °C 30.1in /  1019.4hPa NNE 3.7mph /  6km/h 3.1mph /  5km/h 75% 0in /  0mm 0 W/m2
02:09 44.6 °F /  7 °C 37.4 °F /  3 °C 30.1in /  1019.37hPa NE 6.2mph /  10km/h 4.3mph /  7km/h 75% 0in /  0mm 0 W/m2
02:14 44.6 °F /  7 °C 37.4 °F /  3 °C 30.1in /  1019.34hPa NNE 5.6mph /  9km/h 3.1mph /  5km/h 75% 0in /  0mm 0 W/m2
02:19 44.6 °F /  7 °C 37.4 °F /  3 °C 30.1in /  1019.3hPa NNE 7.5mph /  12km/h 4.3mph /  7km/h 74% 0in /  0mm 0 W/m2
02:24 44.6 °F /  7 °C 37.4 °F /  3 °C 30.1in /  1019.3hPa NNW 4.3mph /  7km/h 3.7mph /  6km/h 73% 0in /  0mm 0 W/m2
02:29 44.6 °F /  7 °C 35.6 °F /  2 °C 30.1in /  1019.27hPa NNW 2.5mph /  4km/h 1.9mph /  3km/h 73% 0in /  0mm 0 W/m2
02:34 44.6 °F /  7 °C 35.6 °F /  2 °C 30.1in /  1019.17hPa NNW 4.3mph /  7km/h 3.1mph /  5km/h 73% 0in /  0mm 0 W/m2
02:39 44.6 °F /  7 °C 35.6 °F /  2 °C 30.1in /  1019.13hPa NNW 4.3mph /  7km/h 3.1mph /  5km/h 73% 0in /  0mm 0 W/m2
02:44 44.6 °F /  7 °C 35.6 °F /  2 °C 30.1in /  1019.1hPa NNE 5.6mph /  9km/h 4.3mph /  7km/h 73% 0in /  0mm 0 W/m2
02:49 44.6 °F /  7 °C 35.6 °F /  2 °C 30.1in /  1019.07hPa N 6.8mph /  11km/h 3.1mph /  5km/h 73% 0in /  0mm 0 W/m2
02:54 44.6 °F /  7 °C 35.6 °F /  2 °C 30.1in /  1018.96hPa N 6.8mph /  11km/h 5mph /  8km/h 72% 0in /  0mm 0 W/m2
02:59 44.6 °F /  7 °C 35.6 °F /  2 °C 30.1in /  1018.93hPa NNW 6.8mph /  11km/h 5mph /  8km/h 72% 0in /  0mm 0 W/m2
03:04 44.6 °F /  7 °C 35.6 °F /  2 °C 30.1in /  1018.93hPa NNW 7.5mph /  12km/h 4.3mph /  7km/h 72% 0in /  0mm 0 W/m2
03:09 44.6 °F /  7 °C 35.6 °F /  2 °C 30.1in /  1018.9hPa NNW 6.2mph /  10km/h 3.1mph /  5km/h 73% 0in /  0mm 0 W/m2
03:14 42.8 °F /  6 °C 35.6 °F /  2 °C 30.1in /  1018.86hPa NNW 5.6mph /  9km/h 3.1mph /  5km/h 74% 0in /  0mm 0 W/m2
03:19 42.8 °F /  6 °C 35.6 °F /  2 °C 30.1in /  1018.83hPa NNW 5mph /  8km/h 3.1mph /  5km/h 74% 0in /  0mm 0 W/m2
03:24 42.8 °F /  6 °C 35.6 °F /  2 °C 30.1in /  1018.8hPa NNW 3.7mph /  6km/h 1.9mph /  3km/h 75% 0in /  0mm 0 W/m2
03:29 42.8 °F /  6 °C 35.6 °F /  2 °C 30.1in /  1018.73hPa NNW 4.3mph /  7km/h 3.1mph /  5km/h 75% 0in /  0mm 0 W/m2
03:34 42.8 °F /  6 °C 35.6 °F /  2 °C 30.1in /  1018.66hPa NNW 4.3mph /  7km/h 3.7mph /  6km/h 75% 0in /  0mm 0 W/m2
03:39 42.8 °F /  6 °C 35.6 °F /  2 °C 30.1in /  1018.59hPa NNW 5.6mph /  9km/h 3.7mph /  6km/h 76% 0in /  0mm 0 W/m2
03:44 42.8 °F /  6 °C 35.6 °F /  2 °C 30.1in /  1018.56hPa NNW 5.6mph /  9km/h 3.1mph /  5km/h 76% 0in /  0mm 0 W/m2
03:49 42.8 °F /  6 °C 35.6 °F /  2 °C 30.1in /  1018.56hPa NW 3.1mph /  5km/h 1.9mph /  3km/h 76% 0in /  0mm 0 W/m2
03:54 42.8 °F /  6 °C 35.6 °F /  2 °C 30.1in /  1018.56hPa NNW 3.7mph /  6km/h 2.5mph /  4km/h 76% 0in /  0mm 0 W/m2
03:59 42.8 °F /  6 °C 35.6 °F /  2 °C 30.1in /  1018.56hPa NNW 3.7mph /  6km/h 3.1mph /  5km/h 77% 0in /  0mm 0 W/m2
04:04 42.8 °F /  6 °C 35.6 °F /  2 °C 30.1in /  1018.56hPa NNW 4.3mph /  7km/h 3.7mph /  6km/h 77% 0in /  0mm 0 W/m2
04:09 42.8 °F /  6 °C 35.6 °F /  2 °C 30.1in /  1018.52hPa NNW 3.1mph /  5km/h 1.9mph /  3km/h 77% 0in /  0mm 0 W/m2
04:14 42.8 °F /  6 °C 35.6 °F /  2 °C 30.1in /  1018.52hPa NW 3.1mph /  5km/h 1.9mph /  3km/h 77% 0in /  0mm 0 W/m2
04:19 42.8 °F /  6 °C 35.6 °F /  2 °C 30.1in /  1018.49hPa NW 2.5mph /  4km/h 1.2mph /  2km/h 77% 0in /  0mm 0 W/m2
04:24 42.8 °F /  6 °C 35.6 °F /  2 °C 30.1in /  1018.42hPa NW 2.5mph /  4km/h 0.6mph /  1km/h 77% 0in /  0mm 0 W/m2
04:29 42.8 °F /  6 °C 35.6 °F /  2 °C 30.1in /  1018.39hPa NW 1.9mph /  3km/h 1.2mph /  2km/h 77% 0in /  0mm 0 W/m2
04:34 42.8 °F /  6 °C 35.6 °F /  2 °C 30.1in /  1018.32hPa NW 2.5mph /  4km/h 1.2mph /  2km/h 77% 0in /  0mm 0 W/m2
04:39 42.8 °F /  6 °C 35.6 °F /  2 °C 30.1in /  1018.32hPa NW 1.2mph /  2km/h   77% 0in /  0mm 0 W/m2
04:44 42.8 °F /  6 °C 35.6 °F /  2 °C 30.1in /  1018.32hPa NW 1.2mph /  2km/h 1.9mph /  3km/h 77% 0in /  0mm 0 W/m2
04:49 42.8 °F /  6 °C 35.6 °F /  2 °C 30.1in /  1018.25hPa NNW 2.5mph /  4km/h 1.2mph /  2km/h 77% 0in /  0mm 0 W/m2
04:54 42.8 °F /  6 °C 35.6 °F /  2 °C 30.1in /  1018.29hPa NNW 3.1mph /  5km/h 1.9mph /  3km/h 78% 0in /  0mm 0 W/m2
04:59 42.8 °F /  6 °C 35.6 °F /  2 °C 30.1in /  1018.29hPa NNW 1.9mph /  3km/h 0.6mph /  1km/h 78% 0in /  0mm 0 W/m2
05:04 41 °F /  5 °C 35.6 °F /  2 °C 30.1in /  1018.35hPa NNW 2.5mph /  4km/h 1.9mph /  3km/h 78% 0in /  0mm 0 W/m2
05:09 41 °F /  5 °C 35.6 °F /  2 °C 30.1in /  1018.42hPa NNW 2.5mph /  4km/h 1.2mph /  2km/h 79% 0in /  0mm 0 W/m2
05:14 41 °F /  5 °C 35.6 °F /  2 °C 30.1in /  1018.42hPa NNW 3.7mph /  6km/h 2.5mph /  4km/h 79% 0in /  0mm 0 W/m2
05:19 41 °F /  5 °C 35.6 °F /  2 °C 30.1in /  1018.42hPa NNW 1.2mph /  2km/h 1.9mph /  3km/h 79% 0in /  0mm 0 W/m2
05:24 41 °F /  5 °C 35.6 °F /  2 °C 30.1in /  1018.35hPa NNW 3.7mph /  6km/h 1.9mph /  3km/h 79% 0in /  0mm 0 W/m2
05:29 41 °F /  5 °C 35.6 °F /  2 °C 30.1in /  1018.35hPa N 3.1mph /  5km/h 1.9mph /  3km/h 79% 0in /  0mm 0 W/m2
05:34 41 °F /  5 °C 35.6 °F /  2 °C 30.1in /  1018.35hPa NNW 3.1mph /  5km/h 1.9mph /  3km/h 79% 0in /  0mm 5 W/m2
05:39 41 °F /  5 °C 35.6 °F /  2 °C 30.1in /  1018.35hPa NNW 2.5mph /  4km/h 1.9mph /  3km/h 78% 0in /  0mm 7 W/m2
05:44 41 °F /  5 °C 35.6 °F /  2 °C 30.1in /  1018.29hPa NNW 2.5mph /  4km/h 1.2mph /  2km/h 78% 0in /  0mm 11 W/m2
05:49 41 °F /  5 °C 35.6 °F /  2 °C 30.1in /  1018.25hPa N 3.7mph /  6km/h 1.9mph /  3km/h 77% 0in /  0mm 12 W/m2
05:54 41 °F /  5 °C 35.6 °F /  2 °C 30.1in /  1018.25hPa N 3.1mph /  5km/h 1.9mph /  3km/h 76% 0in /  0mm 16 W/m2
05:59 41 °F /  5 °C 35.6 °F /  2 °C 30.1in /  1018.25hPa NNW 4.3mph /  7km/h 2.5mph /  4km/h 76% 0in /  0mm 19 W/m2
06:04 41 °F /  5 °C 33.8 °F /  1 °C 30.1in /  1018.25hPa N 2.5mph /  4km/h 1.9mph /  3km/h 75% 0in /  0mm 33 W/m2
06:09 41 °F /  5 °C 33.8 °F /  1 °C 30.1in /  1018.25hPa N 3.7mph /  6km/h 1.9mph /  3km/h 74% 0in /  0mm 40 W/m2
06:14 42.8 °F /  6 °C 33.8 °F /  1 °C 30.1in /  1018.22hPa N 3.7mph /  6km/h 2.5mph /  4km/h 74% 0in /  0mm 54 W/m2
06:19 42.8 °F /  6 °C 33.8 °F /  1 °C 30.1in /  1018.22hPa N 2.5mph /  4km/h 1.9mph /  3km/h 74% 0in /  0mm 60 W/m2
06:24 42.8 °F /  6 °C 35.6 °F /  2 °C 30.1in /  1018.22hPa N 2.5mph /  4km/h 1.2mph /  2km/h 74% 0in /  0mm 70 W/m2
06:29 42.8 °F /  6 °C 35.6 °F /  2 °C 30.1in /  1018.22hPa NNW 4.3mph /  7km/h 3.1mph /  5km/h 74% 0in /  0mm 83 W/m2
06:34 42.8 °F /  6 °C 35.6 °F /  2 °C 30.1in /  1018.22hPa NNW 3.7mph /  6km/h 2.5mph /  4km/h 74% 0in /  0mm 91 W/m2
06:39 42.8 °F /  6 °C 35.6 °F /  2 °C 30.1in /  1018.22hPa NNW 3.7mph /  6km/h 3.1mph /  5km/h 73% 0in /  0mm 98 W/m2
06:44 42.8 °F /  6 °C 35.6 °F /  2 °C 30.1in /  1018.22hPa N 3.7mph /  6km/h 2.5mph /  4km/h 72% 0in /  0mm 109 W/m2
06:49 44.6 °F /  7 °C 35.6 °F /  2 °C 30.1in /  1018.29hPa N 4.3mph /  7km/h 3.1mph /  5km/h 71% 0in /  0mm 120 W/m2
06:54 44.6 °F /  7 °C 35.6 °F /  2 °C 30.1in /  1018.32hPa NNW 3.7mph /  6km/h 3.1mph /  5km/h 70% 0in /  0mm 128 W/m2
06:59 44.6 °F /  7 °C 35.6 °F /  2 °C 30.1in /  1018.29hPa NNW 1.9mph /  3km/h 1.9mph /  3km/h 69% 0in /  0mm 141 W/m2
07:04 44.6 °F /  7 °C 35.6 °F /  2 °C 30.1in /  1018.29hPa N 1.9mph /  3km/h 1.9mph /  3km/h 68% 0in /  0mm 148 W/m2
07:09 44.6 °F /  7 °C 35.6 °F /  2 °C 30.1in /  1018.25hPa N 3.1mph /  5km/h 1.2mph /  2km/h 66% 0in /  0mm 158 W/m2
07:14 46.4 °F /  8 °C 35.6 °F /  2 °C 30.1in /  1018.22hPa NW 3.7mph /  6km/h 2.5mph /  4km/h 65% 0in /  0mm 211 W/m2
07:19 46.4 °F /  8 °C 35.6 °F /  2 °C 30.1in /  1018.25hPa NNW 3.1mph /  5km/h 2.5mph /  4km/h 65% 0in /  0mm 216 W/m2
07:24 46.4 °F /  8 °C 33.8 °F /  1 °C 30.1in /  1018.22hPa NE 5mph /  8km/h 3.1mph /  5km/h 63% 0in /  0mm 207 W/m2
07:29 46.4 °F /  8 °C 33.8 °F /  1 °C 30.1in /  1018.22hPa NNE 4.3mph /  7km/h 3.1mph /  5km/h 62% 0in /  0mm 104 W/m2
07:34 46.4 °F /  8 °C 33.8 °F /  1 °C 30.1in /  1018.22hPa N 4.3mph /  7km/h 2.5mph /  4km/h 62% 0in /  0mm 104 W/m2
07:39 46.4 °F /  8 °C 33.8 °F /  1 °C 30.1in /  1018.19hPa NNW 3.7mph /  6km/h 2.5mph /  4km/h 62% 0in /  0mm 105 W/m2
07:44 46.4 °F /  8 °C 33.8 °F /  1 °C 30.1in /  1018.15hPa N 4.3mph /  7km/h 2.5mph /  4km/h 63% 0in /  0mm 97 W/m2
07:49 46.4 °F /  8 °C 33.8 °F /  1 °C 30.1in /  1018.19hPa N 2.5mph /  4km/h 1.9mph /  3km/h 62% 0in /  0mm 77 W/m2
07:54 46.4 °F /  8 °C 33.8 °F /  1 °C 30.1in /  1018.12hPa NNE 5mph /  8km/h 4.3mph /  7km/h 62% 0in /  0mm 70 W/m2
07:59 46.4 °F /  8 °C 33.8 °F /  1 °C 30.1in /  1018.12hPa N 3.7mph /  6km/h 1.9mph /  3km/h 61% 0in /  0mm 70 W/m2
08:04 46.4 °F /  8 °C 33.8 °F /  1 °C 30.1in /  1018.12hPa NNE 5mph /  8km/h 3.1mph /  5km/h 61% 0in /  0mm 72 W/m2
08:09 46.4 °F /  8 °C 33.8 °F /  1 °C 30.1in /  1018.12hPa NNE 5mph /  8km/h 3.7mph /  6km/h 60% 0in /  0mm 72 W/m2
08:14 46.4 °F /  8 °C 33.8 °F /  1 °C 30.1in /  1018.12hPa NNE 4.3mph /  7km/h 2.5mph /  4km/h 60% 0in /  0mm 63 W/m2
08:19 46.4 °F /  8 °C 33.8 °F /  1 °C 30.1in /  1018.15hPa N 6.8mph /  11km/h 3.7mph /  6km/h 60% 0in /  0mm 53 W/m2
08:24 46.4 °F /  8 °C 33.8 °F /  1 °C 30.1in /  1018.12hPa NNE 6.8mph /  11km/h 5mph /  8km/h 60% 0in /  0mm 54 W/m2
08:29 46.4 °F /  8 °C 33.8 °F /  1 °C 30.1in /  1018.08hPa N 6.8mph /  11km/h 5.6mph /  9km/h 60% 0in /  0mm 56 W/m2
08:34 46.4 °F /  8 °C 33.8 °F /  1 °C 30.1in /  1018.08hPa NNW 6.2mph /  10km/h 3.7mph /  6km/h 60% 0in /  0mm 56 W/m2
08:39 46.4 °F /  8 °C 33.8 °F /  1 °C 30.1in /  1018.08hPa NNE 4.3mph /  7km/h 3.7mph /  6km/h 59% 0in /  0mm 63 W/m2
08:44 46.4 °F /  8 °C 33.8 °F /  1 °C 30.1in /  1018.05hPa N 5.6mph /  9km/h 3.7mph /  6km/h 59% 0in /  0mm 76 W/m2
08:49 46.4 °F /  8 °C 33.8 °F /  1 °C 30.1in /  1018.12hPa N 6.2mph /  10km/h 4.3mph /  7km/h 59% 0in /  0mm 76 W/m2
08:54 46.4 °F /  8 °C 33.8 °F /  1 °C 30.1in /  1018.12hPa NNW 4.3mph /  7km/h 3.7mph /  6km/h 60% 0in /  0mm 70 W/m2
08:59 46.4 °F /  8 °C 33.8 °F /  1 °C 30.1in /  1018.15hPa NNE 4.3mph /  7km/h 2.5mph /  4km/h 61% 0in /  0mm 65 W/m2
09:04 46.4 °F /  8 °C 33.8 °F /  1 °C 30.1in /  1018.15hPa NNE 5.6mph /  9km/h 5mph /  8km/h 61% 0in /  0mm 67 W/m2
09:09 46.4 °F /  8 °C 33.8 °F /  1 °C 30.1in /  1018.12hPa N 5mph /  8km/h 5.6mph /  9km/h 61% 0in /  0mm 70 W/m2
09:14 46.4 °F /  8 °C 33.8 °F /  1 °C 30.1in /  1018.02hPa NNW 3.1mph /  5km/h 2.5mph /  4km/h 61% 0in /  0mm 72 W/m2
09:19 46.4 °F /  8 °C 33.8 °F /  1 °C 30.1in /  1017.91hPa NNW 4.3mph /  7km/h 2.5mph /  4km/h 61% 0in /  0mm 86 W/m2
09:24 46.4 °F /  8 °C 33.8 °F /  1 °C 30.1in /  1018.05hPa N 4.3mph /  7km/h 3.1mph /  5km/h 59% 0in /  0mm 90 W/m2
09:29 46.4 °F /  8 °C 33.8 °F /  1 °C 30.1in /  1018.05hPa NNE 3.1mph /  5km/h 3.1mph /  5km/h 60% 0in /  0mm 459 W/m2
09:34 48.2 °F /  9 °C 35.6 °F /  2 °C 30.1in /  1017.98hPa NNE 5mph /  8km/h 4.3mph /  7km/h 59% 0in /  0mm 475 W/m2
09:39 50 °F /  10 °C 35.6 °F /  2 °C 30.1in /  1017.98hPa N 6.8mph /  11km/h 5mph /  8km/h 57% 0in /  0mm 515 W/m2
09:44 50 °F /  10 °C 35.6 °F /  2 °C 30.1in /  1017.98hPa N 9.9mph /  16km/h 7.5mph /  12km/h 55% 0in /  0mm 520 W/m2
09:49 50 °F /  10 °C 35.6 °F /  2 °C 30.1in /  1017.95hPa NNE 9.3mph /  15km/h 6.2mph /  10km/h 54% 0in /  0mm 397 W/m2
09:54 50 °F /  10 °C 35.6 °F /  2 °C 30.1in /  1017.88hPa N 10.6mph /  17km/h 5.6mph /  9km/h 55% 0in /  0mm 406 W/m2
09:59 50 °F /  10 °C 35.6 °F /  2 °C 30.1in /  1017.85hPa NNE 9.3mph /  15km/h 6.8mph /  11km/h 56% 0in /  0mm 422 W/m2
10:04 51.8 °F /  11 °C 37.4 °F /  3 °C 30.1in /  1017.78hPa NNE 9.9mph /  16km/h 6.2mph /  10km/h 58% 0in /  0mm 582 W/m2
10:09 51.8 °F /  11 °C 37.4 °F /  3 °C 30.1in /  1017.64hPa NNE 11.8mph /  19km/h 7.5mph /  12km/h 59% 0in /  0mm 582 W/m2
10:14 51.8 °F /  11 °C 37.4 °F /  3 °C 30.1in /  1017.64hPa N 12.4mph /  20km/h 8.7mph /  14km/h 61% 0in /  0mm 575 W/m2
10:19 51.8 °F /  11 °C 39.2 °F /  4 °C 30.1in /  1017.51hPa NNE 8.1mph /  13km/h 4.3mph /  7km/h 62% 0in /  0mm 584 W/m2
10:24 51.8 °F /  11 °C 39.2 °F /  4 °C 30in /  1017.44hPa N 11.2mph /  18km/h 5.6mph /  9km/h 63% 0in /  0mm 605 W/m2
10:29 51.8 °F /  11 °C 41 °F /  5 °C 30.1in /  1017.51hPa NNE 8.1mph /  13km/h 5mph /  8km/h 64% 0in /  0mm 561 W/m2
10:34 51.8 °F /  11 °C 41 °F /  5 °C 30.1in /  1017.51hPa N 9.9mph /  16km/h 7.5mph /  12km/h 66% 0in /  0mm 374 W/m2
10:39 51.8 °F /  11 °C 41 °F /  5 °C 30.1in /  1017.51hPa NNE 11.2mph /  18km/h 6.8mph /  11km/h 68% 0in /  0mm 399 W/m2
10:44 51.8 °F /  11 °C 42.8 °F /  6 °C 30in /  1017.44hPa NNE 8.7mph /  14km/h 6.2mph /  10km/h 69% 0in /  0mm 399 W/m2
10:49 51.8 °F /  11 °C 42.8 °F /  6 °C 30in /  1017.44hPa NNE 6.2mph /  10km/h 3.7mph /  6km/h 70% 0in /  0mm 341 W/m2
10:54 51.8 °F /  11 °C 42.8 °F /  6 °C 30in /  1017.41hPa NNE 9.3mph /  15km/h 6.2mph /  10km/h 70% 0in /  0mm 364 W/m2
10:59 51.8 °F /  11 °C 42.8 °F /  6 °C 30in /  1017.37hPa NNE 10.6mph /  17km/h 6.8mph /  11km/h 71% 0in /  0mm 364 W/m2
11:04 51.8 °F /  11 °C 42.8 °F /  6 °C 30in /  1017.34hPa NNE 11.2mph /  18km/h 6.2mph /  10km/h 71% 0in /  0mm 501 W/m2
11:09 51.8 °F /  11 °C 42.8 °F /  6 °C 30in /  1017.34hPa NNE 9.9mph /  16km/h 6.2mph /  10km/h 72% 0in /  0mm 534 W/m2
11:14 53.6 °F /  12 °C 44.6 °F /  7 °C 30in /  1017.24hPa NNE 9.9mph /  16km/h 6.8mph /  11km/h 72% 0in /  0mm 485 W/m2
11:19 51.8 °F /  11 °C 44.6 °F /  7 °C 30in /  1017.17hPa N 13.7mph /  22km/h 9.3mph /  15km/h 72% 0in /  0mm 364 W/m2
11:24 51.8 °F /  11 °C 44.6 °F /  7 °C 30in /  1017.1hPa NNW 14.9mph /  24km/h 9.9mph /  16km/h 73% 0in /  0mm 322 W/m2
11:29 51.8 °F /  11 °C 44.6 °F /  7 °C 30in /  1017.14hPa N 13mph /  21km/h 8.7mph /  14km/h 74% 0in /  0mm 392 W/m2
11:34 51.8 °F /  11 °C 44.6 °F /  7 °C 30in /  1017.1hPa N 13.7mph /  22km/h 9.3mph /  15km/h 75% 0in /  0mm 362 W/m2
11:39 51.8 °F /  11 °C 44.6 °F /  7 °C 30in /  1017.07hPa NNE 11.8mph /  19km/h 8.1mph /  13km/h 75% 0in /  0mm 831 W/m2
11:44 53.6 °F /  12 °C 44.6 °F /  7 °C 30in /  1017.07hPa N 9.9mph /  16km/h 7.5mph /  12km/h 75% 0in /  0mm 891 W/m2
11:49 53.6 °F /  12 °C 46.4 °F /  8 °C 30in /  1017.07hPa NE 8.7mph /  14km/h 8.1mph /  13km/h 73% 0in /  0mm 800 W/m2
11:54 53.6 °F /  12 °C 44.6 °F /  7 °C 30in /  1017.03hPa NE 13mph /  21km/h 10.6mph /  17km/h 73% 0in /  0mm 789 W/m2
11:59 53.6 °F /  12 °C 46.4 °F /  8 °C 30in /  1017.07hPa NNE 11.2mph /  18km/h 7.5mph /  12km/h 74% 0in /  0mm 898 W/m2
12:04 53.6 °F /  12 °C 46.4 °F /  8 °C 30in /  1017.03hPa NNE 10.6mph /  17km/h 5.6mph /  9km/h 74% 0in /  0mm 898 W/m2
12:09 55.4 °F /  13 °C 46.4 °F /  8 °C 30in /  1017hPa NNE 9.3mph /  15km/h 6.2mph /  10km/h 74% 0in /  0mm 902 W/m2
12:14 55.4 °F /  13 °C 46.4 °F /  8 °C 30in /  1016.93hPa NNE 13mph /  21km/h 9.3mph /  15km/h 73% 0in /  0mm 902 W/m2
12:19 55.4 °F /  13 °C 46.4 °F /  8 °C 30in /  1016.97hPa NNE 7.5mph /  12km/h 6.8mph /  11km/h 74% 0in /  0mm 819 W/m2
12:24 55.4 °F /  13 °C 46.4 °F /  8 °C 30in /  1016.97hPa NNE 11.2mph /  18km/h 7.5mph /  12km/h 74% 0in /  0mm 700 W/m2
12:29 53.6 °F /  12 °C 46.4 °F /  8 °C 30in /  1016.93hPa N 11.8mph /  19km/h 8.1mph /  13km/h 74% 0in /  0mm 664 W/m2
12:34 53.6 °F /  12 °C 46.4 °F /  8 °C 30in /  1016.9hPa NNE 9.9mph /  16km/h 6.2mph /  10km/h 76% 0in /  0mm 527 W/m2
12:39 53.6 °F /  12 °C 46.4 °F /  8 °C 30in /  1016.9hPa NE 13.7mph /  22km/h 10.6mph /  17km/h 77% 0in /  0mm 584 W/m2
12:44 51.8 °F /  11 °C 46.4 °F /  8 °C 30in /  1016.9hPa NE 11.8mph /  19km/h 9.3mph /  15km/h 79% 0in /  0mm 584 W/m2
12:49 51.8 °F /  11 °C 46.4 °F /  8 °C 30in /  1016.83hPa NE 11.2mph /  18km/h 8.7mph /  14km/h 81% 0in /  0mm 519 W/m2
12:54 51.8 °F /  11 °C 46.4 °F /  8 °C 30in /  1016.76hPa ENE 16.2mph /  26km/h 12.4mph /  20km/h 82% 0in /  0mm 432 W/m2
12:59 51.8 °F /  11 °C 46.4 °F /  8 °C 30in /  1016.76hPa NE 13.7mph /  22km/h 11.2mph /  18km/h 83% 0in /  0mm 432 W/m2
13:04 51.8 °F /  11 °C 46.4 °F /  8 °C 30in /  1016.76hPa NNE 9.9mph /  16km/h 5.6mph /  9km/h 84% 0in /  0mm 352 W/m2
13:09 51.8 °F /  11 °C 46.4 °F /  8 °C 30in /  1016.73hPa NE 9.9mph /  16km/h 6.8mph /  11km/h 84% 0in /  0mm 279 W/m2
13:14 51.8 °F /  11 °C 46.4 °F /  8 °C 30in /  1016.63hPa NE 8.7mph /  14km/h 6.2mph /  10km/h 85% 0in /  0mm 410 W/m2
13:19 51.8 °F /  11 °C 46.4 °F /  8 °C 30in /  1016.59hPa NNE 9.3mph /  15km/h 6.2mph /  10km/h 85% 0in /  0mm 320 W/m2
13:24 51.8 °F /  11 °C 46.4 °F /  8 °C 30in /  1016.53hPa NE 10.6mph /  17km/h 8.7mph /  14km/h 86% 0in /  0mm 265 W/m2
13:29 51.8 °F /  11 °C 46.4 °F /  8 °C 30in /  1016.42hPa NNE 11.2mph /  18km/h 8.7mph /  14km/h 87% 0in /  0mm 265 W/m2
13:34 50 °F /  10 °C 46.4 °F /  8 °C 30in /  1016.36hPa NNE 6.8mph /  11km/h 8.7mph /  14km/h 87% 0in /  0mm 193 W/m2
13:39 51.8 °F /  11 °C 48.2 °F /  9 °C 30in /  1016.26hPa NNE 8.1mph /  13km/h 4.3mph /  7km/h 87% 0in /  0mm 272 W/m2
13:44 51.8 °F /  11 °C 48.2 °F /  9 °C 30in /  1016.19hPa NNE 8.1mph /  13km/h 5.6mph /  9km/h 87% 0in /  0mm 285 W/m2
13:49 51.8 °F /  11 °C 48.2 °F /  9 °C 30in /  1016.15hPa NNE 8.7mph /  14km/h 6.8mph /  11km/h 87% 0in /  0mm 408 W/m2
13:54 51.8 °F /  11 °C 48.2 °F /  9 °C 30in /  1016.09hPa N 12.4mph /  20km/h 7.5mph /  12km/h 87% 0in /  0mm 385 W/m2
13:59 51.8 °F /  11 °C 48.2 °F /  9 °C 30in /  1016.09hPa N 9.9mph /  16km/h 7.5mph /  12km/h 86% 0in /  0mm 329 W/m2
14:04 51.8 °F /  11 °C 48.2 °F /  9 °C 30in /  1015.98hPa N 9.3mph /  15km/h 6.8mph /  11km/h 86% 0in /  0mm 320 W/m2
14:09 51.8 °F /  11 °C 48.2 °F /  9 °C 30in /  1015.95hPa NNE 10.6mph /  17km/h 8.7mph /  14km/h 86% 0in /  0mm 200 W/m2
14:14 51.8 °F /  11 °C 48.2 °F /  9 °C 30in /  1015.98hPa NNE 11.2mph /  18km/h 7.5mph /  12km/h 86% 0in /  0mm 190 W/m2
14:19 51.8 °F /  11 °C 48.2 °F /  9 °C 30in /  1015.98hPa NNE 11.8mph /  19km/h 8.7mph /  14km/h 87% 0in /  0mm 178 W/m2
14:24 50 °F /  10 °C 48.2 °F /  9 °C 30in /  1015.98hPa NNE 13.7mph /  22km/h 9.9mph /  16km/h 87% 0in /  0mm 162 W/m2
14:29 50 °F /  10 °C 48.2 °F /  9 °C 30in /  1015.98hPa NE 11.2mph /  18km/h 8.1mph /  13km/h 88% 0in /  0mm 171 W/m2
14:34 50 °F /  10 °C 48.2 °F /  9 °C 30in /  1015.95hPa NNE 10.6mph /  17km/h 6.2mph /  10km/h 89% 0in /  0mm 364 W/m2
14:39 51.8 °F /  11 °C 48.2 °F /  9 °C 30in /  1015.85hPa NNE 8.1mph /  13km/h 6.8mph /  11km/h 90% 0in /  0mm 497 W/m2
14:44 51.8 °F /  11 °C 48.2 °F /  9 °C 30in /  1015.82hPa N 8.1mph /  13km/h 5.6mph /  9km/h 90% 0in /  0mm 527 W/m2
14:49 51.8 °F /  11 °C 50 °F /  10 °C 30in /  1015.68hPa NNE 9.9mph /  16km/h 6.8mph /  11km/h 88% 0in /  0mm 548 W/m2
14:54 53.6 °F /  12 °C 50 °F /  10 °C 30in /  1015.61hPa N 5.6mph /  9km/h 3.7mph /  6km/h 87% 0in /  0mm 548 W/m2
14:59 53.6 °F /  12 °C 50 °F /  10 °C 30in /  1015.65hPa N 8.1mph /  13km/h 6.8mph /  11km/h 86% 0in /  0mm 394 W/m2
15:04 53.6 °F /  12 °C 50 °F /  10 °C 30in /  1015.51hPa NNE 9.9mph /  16km/h 6.8mph /  11km/h 86% 0in /  0mm 346 W/m2
15:09 53.6 °F /  12 °C 50 °F /  10 °C 30in /  1015.41hPa NNE 6.2mph /  10km/h 4.3mph /  7km/h 86% 0in /  0mm 490 W/m2
15:14 53.6 °F /  12 °C 50 °F /  10 °C 30in /  1015.31hPa N 9.3mph /  15km/h 6.2mph /  10km/h 85% 0in /  0mm 506 W/m2
15:19 53.6 °F /  12 °C 50 °F /  10 °C 30in /  1015.27hPa N 8.1mph /  13km/h 3.1mph /  5km/h 85% 0in /  0mm 547 W/m2
15:24 53.6 °F /  12 °C 50 °F /  10 °C 30in /  1015.17hPa N 10.6mph /  17km/h 9.3mph /  15km/h 83% 0in /  0mm 490 W/m2
15:29 53.6 °F /  12 °C 50 °F /  10 °C 30in /  1015.07hPa N 11.8mph /  19km/h 7.5mph /  12km/h 83% 0in /  0mm 475 W/m2
15:34 53.6 °F /  12 °C 50 °F /  10 °C 30in /  1015hPa N 10.6mph /  17km/h 7.5mph /  12km/h 83% 0in /  0mm 475 W/m2
15:39 53.6 °F /  12 °C 50 °F /  10 °C 30in /  1014.97hPa NNE 10.6mph /  17km/h 8.7mph /  14km/h 83% 0in /  0mm 429 W/m2
15:44 53.6 °F /  12 °C 48.2 °F /  9 °C 30in /  1014.9hPa N 16.2mph /  26km/h 8.1mph /  13km/h 83% 0in /  0mm 490 W/m2
15:49 53.6 °F /  12 °C 48.2 °F /  9 °C 30in /  1014.83hPa N 12.4mph /  20km/h 8.1mph /  13km/h 83% 0in /  0mm 490 W/m2
15:54 53.6 °F /  12 °C 50 °F /  10 °C 30in /  1014.77hPa NNE 8.7mph /  14km/h 6.2mph /  10km/h 82% 0in /  0mm 657 W/m2
15:59 53.6 °F /  12 °C 48.2 °F /  9 °C 30in /  1014.7hPa N 9.3mph /  15km/h 5mph /  8km/h 82% 0in /  0mm 657 W/m2
16:04 53.6 °F /  12 °C 48.2 °F /  9 °C 30in /  1014.63hPa NNE 9.3mph /  15km/h 4.3mph /  7km/h 82% 0in /  0mm 413 W/m2
16:09 53.6 °F /  12 °C 48.2 °F /  9 °C 30in /  1014.6hPa NE 11.2mph /  18km/h 8.7mph /  14km/h 82% 0in /  0mm 364 W/m2
16:14 53.6 °F /  12 °C 48.2 °F /  9 °C 30in /  1014.56hPa NNE 9.9mph /  16km/h 6.2mph /  10km/h 83% 0in /  0mm 364 W/m2
16:19 53.6 °F /  12 °C 48.2 °F /  9 °C 30in /  1014.49hPa NE 7.5mph /  12km/h 6.2mph /  10km/h 83% 0in /  0mm 279 W/m2
16:24 53.6 °F /  12 °C 48.2 °F /  9 °C 30in /  1014.43hPa NE 11.2mph /  18km/h 8.1mph /  13km/h 84% 0in /  0mm 279 W/m2
16:29 53.6 °F /  12 °C 48.2 °F /  9 °C 30in /  1014.33hPa NNE 8.1mph /  13km/h 5.6mph /  9km/h 84% 0in /  0mm 269 W/m2
16:34 53.6 °F /  12 °C 48.2 °F /  9 °C 30in /  1014.19hPa NNE 8.1mph /  13km/h 5.6mph /  9km/h 84% 0in /  0mm 315 W/m2
16:39 53.6 °F /  12 °C 48.2 °F /  9 °C 30in /  1014.19hPa NNE 9.9mph /  16km/h 6.8mph /  11km/h 84% 0in /  0mm 360 W/m2
16:44 53.6 °F /  12 °C 50 °F /  10 °C 29.9in /  1014.09hPa NNE 8.1mph /  13km/h 3.7mph /  6km/h 84% 0in /  0mm 374 W/m2
16:49 53.6 °F /  12 °C 50 °F /  10 °C 29.9in /  1014.05hPa NNE 9.3mph /  15km/h 6.8mph /  11km/h 83% 0in /  0mm 459 W/m2
16:54 53.6 °F /  12 °C 50 °F /  10 °C 29.9in /  1013.95hPa NE 9.3mph /  15km/h 8.1mph /  13km/h 83% 0in /  0mm 411 W/m2
16:59 53.6 °F /  12 °C 50 °F /  10 °C 29.9in /  1013.88hPa NE 8.7mph /  14km/h 8.7mph /  14km/h 83% 0in /  0mm 373 W/m2
17:04 53.6 °F /  12 °C 48.2 °F /  9 °C 29.9in /  1013.78hPa NNE 11.8mph /  19km/h 9.9mph /  16km/h 83% 0in /  0mm 318 W/m2
17:09 53.6 °F /  12 °C 48.2 °F /  9 °C 29.9in /  1013.68hPa NE 9.9mph /  16km/h 8.7mph /  14km/h 84% 0in /  0mm 315 W/m2
17:14 53.6 °F /  12 °C 48.2 °F /  9 °C 29.9in /  1013.65hPa NNE 10.6mph /  17km/h 8.7mph /  14km/h 84% 0in /  0mm 563 W/m2
17:19 53.6 °F /  12 °C 50 °F /  10 °C 29.9in /  1013.55hPa NE 9.9mph /  16km/h 6.2mph /  10km/h 85% 0in /  0mm 497 W/m2
17:24 53.6 °F /  12 °C 50 °F /  10 °C 29.9in /  1013.51hPa NNE 8.1mph /  13km/h 6.2mph /  10km/h 84% 0in /  0mm 283 W/m2
17:29 53.6 °F /  12 °C 48.2 °F /  9 °C 29.9in /  1013.48hPa NNE 11.2mph /  18km/h 8.1mph /  13km/h 84% 0in /  0mm 309 W/m2
17:34 53.6 °F /  12 °C 48.2 °F /  9 °C 29.9in /  1013.38hPa NE 12.4mph /  20km/h 8.7mph /  14km/h 84% 0in /  0mm 199 W/m2
17:39 51.8 °F /  11 °C 48.2 °F /  9 °C 29.9in /  1013.24hPa NE 9.9mph /  16km/h 7.5mph /  12km/h 85% 0in /  0mm 134 W/m2
17:44 51.8 °F /  11 °C 48.2 °F /  9 °C 29.9in /  1013.14hPa NE 9.9mph /  16km/h 6.8mph /  11km/h 85% 0in /  0mm 527 W/m2
17:49 53.6 °F /  12 °C 48.2 °F /  9 °C 29.9in /  1013.11hPa NE 9.3mph /  15km/h 6.8mph /  11km/h 85% 0in /  0mm 527 W/m2
17:54 53.6 °F /  12 °C 50 °F /  10 °C 29.9in /  1013.04hPa NE 7.5mph /  12km/h 6.2mph /  10km/h 84% 0in /  0mm 439 W/m2
17:59 53.6 °F /  12 °C 50 °F /  10 °C 29.9in /  1013.04hPa NNE 6.8mph /  11km/h 5mph /  8km/h 83% 0in /  0mm 397 W/m2
18:04 53.6 °F /  12 °C 48.2 °F /  9 °C 29.9in /  1013.04hPa NE 8.7mph /  14km/h 5.6mph /  9km/h 83% 0in /  0mm 424 W/m2
18:09 53.6 °F /  12 °C 50 °F /  10 °C 29.9in /  1012.97hPa N 6.2mph /  10km/h 3.7mph /  6km/h 83% 0in /  0mm 508 W/m2
18:14 55.4 °F /  13 °C 50 °F /  10 °C 29.9in /  1012.97hPa N 5mph /  8km/h 3.1mph /  5km/h 82% 0in /  0mm 508 W/m2
18:19 55.4 °F /  13 °C 50 °F /  10 °C 29.9in /  1012.87hPa N 6.8mph /  11km/h 4.3mph /  7km/h 81% 0in /  0mm 403 W/m2
18:24 55.4 °F /  13 °C 50 °F /  10 °C 29.9in /  1012.87hPa NE 9.9mph /  16km/h 6.2mph /  10km/h 80% 0in /  0mm 323 W/m2
18:29 53.6 °F /  12 °C 48.2 °F /  9 °C 29.9in /  1012.8hPa NNE 11.2mph /  18km/h 8.1mph /  13km/h 81% 0in /  0mm 188 W/m2
18:34 53.6 °F /  12 °C 48.2 °F /  9 °C 29.9in /  1012.8hPa NNE 8.7mph /  14km/h 5.6mph /  9km/h 82% 0in /  0mm 369 W/m2
18:39 53.6 °F /  12 °C 48.2 °F /  9 °C 29.9in /  1012.73hPa NE 8.7mph /  14km/h 6.2mph /  10km/h 83% 0in /  0mm 369 W/m2
18:44 53.6 °F /  12 °C 48.2 °F /  9 °C 29.9in /  1012.63hPa NE 8.7mph /  14km/h 6.8mph /  11km/h 83% 0in /  0mm 316 W/m2
18:49 53.6 °F /  12 °C 48.2 °F /  9 °C 29.9in /  1012.67hPa NNE 9.3mph /  15km/h 6.8mph /  11km/h 83% 0in /  0mm 315 W/m2
18:54 53.6 °F /  12 °C 48.2 °F /  9 °C 29.9in /  1012.6hPa NNE 6.2mph /  10km/h 5mph /  8km/h 83% 0in /  0mm 295 W/m2
Compliments of Weather Underground - 2 mb